createdAt,value
2023-01-10T00:01:58.970Z,7.80
2023-01-10T00:04:26.170Z,7.80
2023-01-10T00:06:54.373Z,7.80
2023-01-10T00:09:21.345Z,7.80
2023-01-10T00:11:48.376Z,7.80
2023-01-10T00:14:15.163Z,7.80
2023-01-10T00:16:42.046Z,7.80
2023-01-10T00:19:09.407Z,7.80
2023-01-10T00:21:36.517Z,7.90
2023-01-10T00:24:06.140Z,7.90
2023-01-10T00:26:32.888Z,7.90
2023-01-10T00:28:59.619Z,7.90
2023-01-10T00:31:26.560Z,7.90
2023-01-10T00:33:53.316Z,7.90
2023-01-10T00:36:20.227Z,7.90
2023-01-10T00:38:47.169Z,7.90
2023-01-10T00:41:15.235Z,7.90
2023-01-10T00:43:42.212Z,7.90
2023-01-10T00:46:09.867Z,7.90
2023-01-10T00:48:37.277Z,7.90
2023-01-10T00:51:05.162Z,7.90
2023-01-10T00:53:32.302Z,8.00
2023-01-10T00:55:58.989Z,7.90
2023-01-10T00:58:28.808Z,7.90
2023-01-10T01:00:55.671Z,7.90
2023-01-10T01:03:23.794Z,7.90
2023-01-10T01:05:50.930Z,7.90
2023-01-10T01:08:20.731Z,7.90
2023-01-10T01:10:48.276Z,7.90
2023-01-10T01:13:18.533Z,7.90
2023-01-10T01:15:46.877Z,7.90
2023-01-10T01:18:16.746Z,7.90
2023-01-10T01:20:44.781Z,7.90
2023-01-10T01:23:12.300Z,7.90
2023-01-10T01:25:39.257Z,7.90
2023-01-10T01:28:06.038Z,7.90
2023-01-10T01:30:32.938Z,7.90
2023-01-10T01:33:01.365Z,7.90
2023-01-10T01:35:28.655Z,7.80
2023-01-10T01:37:55.727Z,7.80
2023-01-10T01:40:23.527Z,7.80
2023-01-10T01:42:51.234Z,7.80
2023-01-10T01:45:41.994Z,7.80
2023-01-10T01:48:21.808Z,7.80
2023-01-10T01:50:55.717Z,7.80
2023-01-10T01:53:29.890Z,7.80
2023-01-10T01:56:05.309Z,7.80
2023-01-10T01:58:41.562Z,7.80
2023-01-10T02:01:09.581Z,7.80
2023-01-10T02:03:39.666Z,7.80
2023-01-10T02:06:07.676Z,7.70
2023-01-10T02:08:35.403Z,7.70
2023-01-10T02:11:09.284Z,7.70
2023-01-10T02:13:41.395Z,7.60
2023-01-10T02:16:09.561Z,7.60
2023-01-10T02:18:40.528Z,7.60
2023-01-10T02:21:40.545Z,7.60
2023-01-10T02:24:48.653Z,7.50
2023-01-10T02:27:25.942Z,7.50
2023-01-10T02:30:46.769Z,7.50
2023-01-10T02:33:23.398Z,7.50
2023-01-10T02:36:31.639Z,7.50
2023-01-10T02:39:07.503Z,7.50
2023-01-10T02:41:45.285Z,7.50
2023-01-10T02:44:18.988Z,7.50
2023-01-10T02:46:48.646Z,7.50
2023-01-10T02:49:16.856Z,7.50
2023-01-10T02:51:44.216Z,7.50
2023-01-10T02:54:23.555Z,7.50
2023-01-10T02:57:18.854Z,7.50
2023-01-10T03:00:27.377Z,7.50
2023-01-10T03:03:11.647Z,7.40
2023-01-10T03:05:55.740Z,7.50
2023-01-10T03:08:35.850Z,7.50
2023-01-10T03:11:06.879Z,7.40
2023-01-10T03:13:43.180Z,7.50
2023-01-10T03:16:16.605Z,7.50
2023-01-10T03:18:50.044Z,7.40
2023-01-10T03:21:20.775Z,7.50
2023-01-10T03:23:52.164Z,7.50
2023-01-10T03:26:29.261Z,7.50
2023-01-10T03:29:03.896Z,7.50
2023-01-10T03:31:38.973Z,7.50
2023-01-10T03:34:06.443Z,7.40
2023-01-10T03:36:44.730Z,7.40
2023-01-10T03:39:20.374Z,7.40
2023-01-10T03:41:56.474Z,7.40
2023-01-10T03:44:32.714Z,7.40
2023-01-10T03:47:08.029Z,7.30
2023-01-10T03:49:39.098Z,7.30
2023-01-10T03:52:10.669Z,7.30
2023-01-10T03:54:37.778Z,7.30
2023-01-10T03:57:06.339Z,7.20
2023-01-10T03:59:34.256Z,7.20
2023-01-10T04:02:01.596Z,7.20
2023-01-10T04:04:28.648Z,7.10
2023-01-10T04:06:55.455Z,7.10
2023-01-10T04:09:23.975Z,7.10
2023-01-10T04:11:50.778Z,7.00
2023-01-10T04:14:17.669Z,7.00
2023-01-10T04:16:45.086Z,7.00
2023-01-10T04:19:12.175Z,7.00
2023-01-10T04:21:41.999Z,6.90
2023-01-10T04:24:08.930Z,6.90
2023-01-10T04:26:37.253Z,6.90
2023-01-10T04:29:05.517Z,6.80
2023-01-10T04:31:32.858Z,6.80
2023-01-10T04:33:59.798Z,6.80
2023-01-10T04:36:26.857Z,6.80
2023-01-10T04:38:54.181Z,6.80
2023-01-10T04:41:21.487Z,6.80
2023-01-10T04:43:49.669Z,6.80
2023-01-10T04:46:16.934Z,6.80
2023-01-10T04:48:43.867Z,6.80
2023-01-10T04:51:11.292Z,6.80
2023-01-10T04:53:38.689Z,6.80
2023-01-10T04:56:08.260Z,6.90
2023-01-10T04:58:36.852Z,6.80
2023-01-10T05:01:09.617Z,6.90
2023-01-10T05:03:36.413Z,6.80
2023-01-10T05:06:03.936Z,6.80
2023-01-10T05:08:30.828Z,6.90
2023-01-10T05:10:57.652Z,6.90
2023-01-10T05:13:24.799Z,6.90
2023-01-10T05:15:54.301Z,7.00
2023-01-10T05:18:23.561Z,6.90
2023-01-10T05:20:50.997Z,7.00
2023-01-10T05:23:17.837Z,7.00
2023-01-10T05:25:45.264Z,7.00
2023-01-10T05:28:12.200Z,7.00
2023-01-10T05:30:39.236Z,7.00
2023-01-10T05:33:06.420Z,7.00
2023-01-10T05:35:35.235Z,7.00
2023-01-10T05:40:55.487Z,7.10
2023-01-10T05:43:24.247Z,7.10
2023-01-10T05:45:51.150Z,7.10
2023-01-10T05:48:18.506Z,7.10
2023-01-10T05:50:47.050Z,7.10
2023-01-10T05:53:13.769Z,7.10
2023-01-10T05:55:40.814Z,7.10
2023-01-10T05:58:07.869Z,7.10
2023-01-10T06:00:37.517Z,7.00
2023-01-10T06:03:04.390Z,7.00
2023-01-10T06:05:31.203Z,7.00
2023-01-10T06:07:59.446Z,7.00
2023-01-10T06:10:27.140Z,6.90
2023-01-10T06:12:54.714Z,6.90
2023-01-10T06:15:21.972Z,7.00
2023-01-10T06:17:48.851Z,6.90
2023-01-10T06:20:16.747Z,6.90
2023-01-10T06:22:46.314Z,6.90
2023-01-10T06:25:14.927Z,6.90
2023-01-10T06:27:43.602Z,6.90
2023-01-10T06:30:13.580Z,6.90
2023-01-10T06:32:41.200Z,6.80
2023-01-10T06:35:09.373Z,6.80
2023-01-10T06:37:37.355Z,6.80
2023-01-10T06:40:05.194Z,6.80
2023-01-10T06:42:33.783Z,6.80
2023-01-10T06:45:00.733Z,6.80
2023-01-10T06:47:27.622Z,6.70
2023-01-10T06:49:54.529Z,6.70
2023-01-10T06:52:21.473Z,6.70
2023-01-10T06:54:48.474Z,6.70
2023-01-10T06:57:16.419Z,6.60
2023-01-10T06:59:44.565Z,6.70
2023-01-10T07:02:12.263Z,6.60
2023-01-10T07:04:39.036Z,6.60
2023-01-10T07:07:06.021Z,6.50
2023-01-10T07:09:32.775Z,6.50
2023-01-10T07:11:59.948Z,6.50
2023-01-10T07:14:26.771Z,6.40
2023-01-10T07:16:55.519Z,6.50
2023-01-10T07:19:22.316Z,6.50
2023-01-10T07:21:49.184Z,6.40
2023-01-10T07:24:15.947Z,6.40
2023-01-10T07:26:42.921Z,6.40
2023-01-10T07:29:09.908Z,6.30
2023-01-10T07:31:37.032Z,6.30
2023-01-10T07:34:05.238Z,6.30
2023-01-10T07:36:32.307Z,6.30
2023-01-10T07:38:59.255Z,6.30
2023-01-10T07:41:25.972Z,6.30
2023-01-10T07:43:53.116Z,6.30
2023-01-10T07:46:20.234Z,6.30
2023-01-10T07:48:47.060Z,6.30
2023-01-10T07:51:15.332Z,6.30
2023-01-10T07:53:42.146Z,6.30
2023-01-10T07:56:09.041Z,6.30
2023-01-10T07:58:36.176Z,6.30
2023-01-10T08:01:05.624Z,6.30
2023-01-10T08:03:32.557Z,6.30
2023-01-10T08:06:01.128Z,6.30
2023-01-10T08:08:30.206Z,6.30
2023-01-10T08:10:57.455Z,6.40
2023-01-10T08:13:24.187Z,6.40
2023-01-10T08:15:51.354Z,6.40
2023-01-10T08:18:20.045Z,6.40
2023-01-10T08:20:49.513Z,6.40
2023-01-10T08:23:16.968Z,6.40
2023-01-10T08:25:45.597Z,6.50
2023-01-10T08:28:13.854Z,6.50
2023-01-10T08:30:41.144Z,6.50
2023-01-10T08:33:10.637Z,6.60
2023-01-10T08:35:38.644Z,6.70
2023-01-10T08:38:06.012Z,6.80
2023-01-10T08:40:33.113Z,6.80
2023-01-10T08:43:05.117Z,6.80
2023-01-10T08:45:33.000Z,6.80
2023-01-10T08:47:59.999Z,6.80
2023-01-10T08:50:27.171Z,6.80
2023-01-10T08:52:53.950Z,6.80
2023-01-10T08:55:20.878Z,6.80
2023-01-10T08:57:47.995Z,6.80
2023-01-10T09:00:17.430Z,6.90
2023-01-10T09:02:44.661Z,7.10
2023-01-10T09:05:22.205Z,7.20
2023-01-10T09:07:53.271Z,7.20
2023-01-10T09:10:20.561Z,7.20
2023-01-10T09:12:47.294Z,7.30
2023-01-10T09:15:14.111Z,7.40
2023-01-10T09:17:42.429Z,7.40
2023-01-10T09:20:11.047Z,7.60
2023-01-10T09:22:38.265Z,7.60
2023-01-10T09:25:06.822Z,7.80
2023-01-10T09:27:33.943Z,7.90
2023-01-10T09:30:00.801Z,8.00
2023-01-10T09:32:27.897Z,8.10
2023-01-10T09:34:56.248Z,8.10
2023-01-10T09:37:23.364Z,8.40
2023-01-10T09:39:50.443Z,8.50
2023-01-10T09:42:38.470Z,8.50
2023-01-10T09:45:15.571Z,8.60
2023-01-10T09:47:52.973Z,8.70
2023-01-10T09:50:31.842Z,8.70
2023-01-10T09:53:09.478Z,8.60
2023-01-10T09:55:38.565Z,8.70
2023-01-10T09:58:12.686Z,8.70
2023-01-10T10:00:43.772Z,8.60
2023-01-10T10:03:25.708Z,8.60
2023-01-10T10:06:00.871Z,8.50
2023-01-10T10:08:36.108Z,8.50
2023-01-10T10:11:29.215Z,8.60
2023-01-10T10:14:05.570Z,8.50
2023-01-10T10:17:00.747Z,8.50
2023-01-10T10:19:38.700Z,8.40
2023-01-10T10:22:18.469Z,8.40
2023-01-10T10:25:02.825Z,8.50
2023-01-10T10:27:39.829Z,8.40
2023-01-10T10:30:37.942Z,8.40
2023-01-10T10:33:32.710Z,8.30
2023-01-10T10:36:06.037Z,8.20
2023-01-10T10:38:39.047Z,8.20
2023-01-10T10:41:17.026Z,8.30
2023-01-10T10:43:47.645Z,8.30
2023-01-10T10:46:16.846Z,8.30
2023-01-10T10:48:53.592Z,8.30
2023-01-10T10:51:27.483Z,8.40
2023-01-10T10:53:57.688Z,8.30
2023-01-10T10:56:27.315Z,8.20
2023-01-10T10:58:58.242Z,8.20
2023-01-10T11:01:27.146Z,8.30
2023-01-10T11:04:00.279Z,8.30
2023-01-10T11:06:33.192Z,8.30
2023-01-10T11:09:06.863Z,8.40
2023-01-10T11:11:38.587Z,8.40
2023-01-10T11:14:08.083Z,8.40
2023-01-10T11:16:37.766Z,8.40
2023-01-10T11:19:26.392Z,8.50
2023-01-10T11:21:57.574Z,8.50
2023-01-10T11:24:30.773Z,8.60
2023-01-10T11:27:02.118Z,8.70
2023-01-10T11:29:42.779Z,8.80
2023-01-10T11:32:14.506Z,8.90
2023-01-10T11:34:47.467Z,8.90
2023-01-10T11:37:21.296Z,9.00
2023-01-10T11:39:49.674Z,9.00
2023-01-10T11:42:30.065Z,8.90
2023-01-10T11:45:23.636Z,8.90
2023-01-10T11:47:55.027Z,8.90
2023-01-10T11:50:25.661Z,8.80
2023-01-10T11:52:53.695Z,8.90
2023-01-10T11:55:25.897Z,8.90
2023-01-10T11:58:02.535Z,8.80
2023-01-10T12:00:37.921Z,8.90
2023-01-10T12:03:23.525Z,8.80
2023-01-10T12:05:53.458Z,8.80
2023-01-10T12:08:33.011Z,8.80
2023-01-10T12:11:05.696Z,8.80
2023-01-10T12:13:46.371Z,8.80
2023-01-10T12:16:19.404Z,8.80
2023-01-10T12:18:49.283Z,8.80
2023-01-10T12:21:23.205Z,8.90
2023-01-10T12:23:53.714Z,8.90
2023-01-10T12:26:22.434Z,8.90
2023-01-10T12:28:58.517Z,9.00
2023-01-10T12:31:27.623Z,9.00
2023-01-10T12:34:04.321Z,9.00
2023-01-10T12:36:42.280Z,9.00
2023-01-10T12:39:15.431Z,9.00
2023-01-10T12:41:54.997Z,8.90
2023-01-10T12:44:28.467Z,9.00
2023-01-10T12:47:09.391Z,8.90
2023-01-10T12:49:45.729Z,8.90
2023-01-10T12:52:31.522Z,9.00
2023-01-10T12:55:00.081Z,9.00
2023-01-10T12:57:36.967Z,9.00
2023-01-10T13:00:07.389Z,9.10
2023-01-10T13:02:42.190Z,9.10
2023-01-10T13:05:19.936Z,9.10
2023-01-10T13:07:49.694Z,9.00
2023-01-10T13:10:20.903Z,9.00
2023-01-10T13:12:59.022Z,9.10
2023-01-10T13:15:32.793Z,9.10
2023-01-10T13:18:05.094Z,9.10
2023-01-10T13:20:43.852Z,9.10
2023-01-10T13:23:29.177Z,9.10
2023-01-10T13:26:01.447Z,9.10
2023-01-10T13:28:33.082Z,9.10
2023-01-10T13:31:01.930Z,9.00
2023-01-10T13:33:32.118Z,9.00
2023-01-10T13:36:10.660Z,9.00
2023-01-10T13:38:48.915Z,9.00
2023-01-10T13:41:16.698Z,9.00
2023-01-10T13:44:06.562Z,9.10
2023-01-10T13:46:47.275Z,9.00
2023-01-10T13:49:41.645Z,9.00
2023-01-10T13:52:38.853Z,9.00
2023-01-10T13:55:31.852Z,9.10
2023-01-10T13:58:01.959Z,9.10
2023-01-10T14:00:49.806Z,9.10
2023-01-10T14:03:45.384Z,9.10
2023-01-10T14:06:33.181Z,9.10
2023-01-10T14:09:06.281Z,9.20
2023-01-10T14:11:51.400Z,9.20
2023-01-10T14:14:24.235Z,9.10
2023-01-10T14:16:57.089Z,9.10
2023-01-10T14:19:29.472Z,9.10
2023-01-10T14:22:00.537Z,9.10
2023-01-10T14:24:30.494Z,9.00
2023-01-10T14:27:02.975Z,9.00
2023-01-10T14:29:33.527Z,8.90
2023-01-10T14:32:06.367Z,8.90
2023-01-10T14:34:35.747Z,8.90
2023-01-10T14:37:09.275Z,8.90
2023-01-10T14:39:36.713Z,8.80
2023-01-10T14:42:08.856Z,8.80
2023-01-10T14:44:42.683Z,8.70
2023-01-10T14:47:28.135Z,8.70
2023-01-10T14:49:55.459Z,8.70
2023-01-10T14:52:25.641Z,8.60
2023-01-10T14:55:04.050Z,8.70
2023-01-10T14:57:30.826Z,8.60
2023-01-10T15:00:16.219Z,8.70
2023-01-10T15:02:48.497Z,8.60
2023-01-10T15:05:20.251Z,8.50
2023-01-10T15:07:47.352Z,8.50
2023-01-10T15:10:24.622Z,8.40
2023-01-10T15:12:55.911Z,8.40
2023-01-10T15:15:30.540Z,8.50
2023-01-10T15:18:02.307Z,8.40
2023-01-10T15:20:30.199Z,8.40
2023-01-10T15:23:00.336Z,8.30
2023-01-10T15:25:34.423Z,8.30
2023-01-10T15:28:01.535Z,8.40
2023-01-10T15:30:35.346Z,8.30
2023-01-10T15:33:09.842Z,8.30
2023-01-10T15:35:37.242Z,8.20
2023-01-10T15:38:08.164Z,8.30
2023-01-10T15:40:38.102Z,8.20
2023-01-10T15:43:23.416Z,8.20
2023-01-10T15:45:51.968Z,8.20
2023-01-10T15:48:32.133Z,8.20
2023-01-10T15:51:01.725Z,8.20
2023-01-10T15:53:55.736Z,8.30
2023-01-10T15:56:28.549Z,8.20
2023-01-10T15:58:58.682Z,8.20
2023-01-10T16:01:28.670Z,8.30
2023-01-10T16:03:59.680Z,8.20
2023-01-10T16:06:31.000Z,8.10
2023-01-10T16:09:01.082Z,8.20
2023-01-10T16:11:38.612Z,8.10
2023-01-10T16:14:05.464Z,8.10
2023-01-10T16:16:32.463Z,8.10
2023-01-10T16:19:02.822Z,8.00
2023-01-10T16:21:36.413Z,8.00
2023-01-10T16:24:05.284Z,8.10
2023-01-10T16:26:33.167Z,8.00
2023-01-10T16:29:00.130Z,8.00
2023-01-10T16:31:27.314Z,8.00
2023-01-10T16:33:54.191Z,8.00
2023-01-10T16:36:22.294Z,8.00
2023-01-10T16:38:49.125Z,8.10
2023-01-10T16:41:16.303Z,8.10
2023-01-10T16:43:43.038Z,8.00
2023-01-10T16:46:09.876Z,8.00
2023-01-10T16:48:36.655Z,8.00
2023-01-10T16:51:17.046Z,8.00
2023-01-10T16:53:46.402Z,8.00
2023-01-10T16:56:15.865Z,8.00
2023-01-10T16:58:43.986Z,7.90
2023-01-10T17:01:17.042Z,8.00
2023-01-10T17:03:45.180Z,8.00
2023-01-10T17:06:13.644Z,8.00
2023-01-10T17:08:41.578Z,8.00
2023-01-10T17:11:15.990Z,7.90
2023-01-10T17:13:45.391Z,8.00
2023-01-10T17:16:13.149Z,8.00
2023-01-10T17:18:40.211Z,7.90
2023-01-10T17:21:10.928Z,7.90
2023-01-10T17:23:37.888Z,7.90
2023-01-10T17:26:05.815Z,7.90
2023-01-10T17:28:34.125Z,7.90
2023-01-10T17:31:01.177Z,7.90
2023-01-10T17:33:28.062Z,7.80
2023-01-10T17:35:56.626Z,7.80
2023-01-10T17:38:26.556Z,7.80
2023-01-10T17:40:54.830Z,7.90
2023-01-10T17:43:22.503Z,7.80
2023-01-10T17:45:51.596Z,7.90
2023-01-10T17:48:19.307Z,7.90
2023-01-10T17:50:48.956Z,7.70
2023-01-10T17:53:17.694Z,7.80
2023-01-10T17:55:45.541Z,7.80
2023-01-10T17:58:12.802Z,7.70
2023-01-10T18:00:40.235Z,7.70
2023-01-10T18:03:09.697Z,7.70
2023-01-10T18:05:37.118Z,7.70
2023-01-10T18:08:04.499Z,7.80
2023-01-10T18:10:32.608Z,7.70
2023-01-10T18:13:00.057Z,7.80
2023-01-10T18:15:28.614Z,7.70
2023-01-10T18:17:55.353Z,7.70
2023-01-10T18:20:23.635Z,7.70
2023-01-10T18:22:50.731Z,7.60
2023-01-10T18:25:17.665Z,7.60
2023-01-10T18:27:44.793Z,7.60
2023-01-10T18:30:12.043Z,7.60
2023-01-10T18:32:38.764Z,7.60
2023-01-10T18:35:06.659Z,7.60
2023-01-10T18:37:34.851Z,7.70
2023-01-10T18:42:52.479Z,7.70
2023-01-10T18:45:19.671Z,7.60
2023-01-10T18:47:50.711Z,7.70
2023-01-10T18:50:17.717Z,7.60
2023-01-10T18:52:46.035Z,7.60
2023-01-10T18:55:13.090Z,7.60
2023-01-10T18:57:39.873Z,7.60
2023-01-10T19:00:11.672Z,7.70
2023-01-10T19:02:38.919Z,7.60
2023-01-10T19:05:06.652Z,7.60
2023-01-10T19:07:33.414Z,7.60
2023-01-10T19:10:01.930Z,7.60
2023-01-10T19:12:28.814Z,7.60
2023-01-10T19:14:56.315Z,7.60
2023-01-10T19:17:23.513Z,7.60
2023-01-10T19:19:50.483Z,7.60
2023-01-10T19:22:17.402Z,7.80
2023-01-10T19:24:44.517Z,7.60
2023-01-10T19:27:12.655Z,7.60
2023-01-10T19:29:39.688Z,7.70
2023-01-10T19:32:06.659Z,7.60
2023-01-10T19:34:33.482Z,7.60
2023-01-10T19:37:00.481Z,7.60
2023-01-10T19:39:27.538Z,7.60
2023-01-10T19:41:54.430Z,7.70
2023-01-10T19:44:23.216Z,7.70
2023-01-10T19:46:49.947Z,7.70
2023-01-10T19:49:18.378Z,7.70
2023-01-10T19:51:47.837Z,7.60
2023-01-10T19:54:14.716Z,7.60
2023-01-10T19:56:47.262Z,7.50
2023-01-10T19:59:14.106Z,7.50
2023-01-10T20:01:42.419Z,7.70
2023-01-10T20:04:10.117Z,7.60
2023-01-10T20:06:40.031Z,7.60
2023-01-10T20:09:10.521Z,7.70
2023-01-10T20:11:37.432Z,7.70
2023-01-10T20:14:05.353Z,7.70
2023-01-10T20:16:32.174Z,7.60
2023-01-10T20:19:00.300Z,7.60
2023-01-10T20:21:27.157Z,7.60
2023-01-10T20:23:54.106Z,7.70
2023-01-10T20:26:24.068Z,7.60
2023-01-10T20:28:50.936Z,7.60
2023-01-10T20:31:22.080Z,7.60
2023-01-10T20:33:49.778Z,7.60
2023-01-10T20:36:21.410Z,7.60
2023-01-10T20:38:49.435Z,7.60
2023-01-10T20:41:19.004Z,7.50
2023-01-10T20:43:46.499Z,7.50
2023-01-10T20:46:15.625Z,7.40
2023-01-10T20:48:42.646Z,7.40
2023-01-10T20:51:13.650Z,7.50
2023-01-10T20:53:42.148Z,7.50
2023-01-10T20:56:13.935Z,7.40
2023-01-10T20:58:41.311Z,7.40
2023-01-10T21:01:09.289Z,7.40
2023-01-10T21:03:36.332Z,7.40
2023-01-10T21:06:04.027Z,7.30
2023-01-10T21:08:30.973Z,7.30
2023-01-10T21:10:59.333Z,7.40
2023-01-10T21:13:27.051Z,7.20
2023-01-10T21:15:57.218Z,7.20
2023-01-10T21:18:27.150Z,7.20
2023-01-10T21:20:56.383Z,7.20
2023-01-10T21:23:25.941Z,7.30
2023-01-10T21:25:53.969Z,7.20
2023-01-10T21:28:22.258Z,7.20
2023-01-10T21:30:49.232Z,7.10
2023-01-10T21:33:16.179Z,7.10
2023-01-10T21:35:51.303Z,7.10
2023-01-10T21:38:18.287Z,7.10
2023-01-10T21:40:45.378Z,7.10
2023-01-10T21:43:12.403Z,7.00
2023-01-10T21:45:40.490Z,7.00
2023-01-10T21:48:07.308Z,7.10
2023-01-10T21:50:34.237Z,7.20
2023-01-10T21:53:01.369Z,7.00
2023-01-10T21:55:28.896Z,7.10
2023-01-10T21:57:55.760Z,7.10
2023-01-10T22:00:22.812Z,7.20
2023-01-10T22:02:50.920Z,7.10
2023-01-10T22:05:18.352Z,7.10
2023-01-10T22:07:45.228Z,7.20
2023-01-10T22:10:13.346Z,7.10
2023-01-10T22:12:40.055Z,7.00
2023-01-10T22:15:08.821Z,7.00
2023-01-10T22:17:35.805Z,7.10
2023-01-10T22:20:05.806Z,7.00
2023-01-10T22:22:32.944Z,7.20
2023-01-10T22:25:00.251Z,7.20
2023-01-10T22:27:28.892Z,7.00
2023-01-10T22:29:55.737Z,7.00
2023-01-10T22:32:22.505Z,7.10
2023-01-10T22:34:49.212Z,7.00
2023-01-10T22:37:17.707Z,7.00
2023-01-10T22:39:45.717Z,7.10
2023-01-10T22:42:13.802Z,7.00
2023-01-10T22:44:41.237Z,7.00
2023-01-10T22:47:09.040Z,7.00
2023-01-10T22:49:35.870Z,7.00
2023-01-10T22:52:02.659Z,6.90
2023-01-10T22:54:30.982Z,7.00
2023-01-10T22:56:57.810Z,6.90
2023-01-10T22:59:24.662Z,7.00
2023-01-10T23:01:51.378Z,7.10
2023-01-10T23:04:18.237Z,7.10
2023-01-10T23:06:45.123Z,7.00
2023-01-10T23:09:12.108Z,7.00
2023-01-10T23:11:40.360Z,7.00
2023-01-10T23:14:07.121Z,7.10
2023-01-10T23:16:33.988Z,7.00
2023-01-10T23:21:52.040Z,6.90
2023-01-10T23:24:18.960Z,7.10
2023-01-10T23:26:49.167Z,7.00
2023-01-10T23:29:16.127Z,7.00
2023-01-10T23:31:42.848Z,7.00
2023-01-10T23:34:09.774Z,7.00
2023-01-10T23:36:36.546Z,7.00
2023-01-10T23:39:03.521Z,7.00
2023-01-10T23:41:30.247Z,7.10
2023-01-10T23:43:58.452Z,7.10
2023-01-10T23:46:25.872Z,7.10
2023-01-10T23:48:52.819Z,7.00
2023-01-10T23:51:19.579Z,7.00
2023-01-10T23:53:46.696Z,7.00
2023-01-10T23:56:15.109Z,7.00
2023-01-10T23:58:41.865Z,7.10
